Time;durP1;ratioP1;P1;durP2;ratioP2;P2;SDS_P1;SDS_P2;PMS_P1;PMS_P2;Temp;Humidity;BMP_temperature;BMP_pressure;BME280_temperature;BME280_humidity;BME280_pressure;Samples;Min_cycle;Max_cycle;Signal;HPM_P1;HPM_P2
2021/11/27 00:00:53;;;;;;;12.88;9.90;;;;;;;;;;5086097;27;81853;-59
2021/11/27 00:03:20;;;;;;;12.18;10.00;;;;;;;;;;5087895;27;83802;-61
2021/11/27 00:05:49;;;;;;;10.20;8.25;;;;;;;;;;5081778;22;83570;-58
2021/11/27 00:08:17;;;;;;;10.23;8.10;;;;;;;;;;5027198;28;83924;-59
2021/11/27 00:10:48;;;;;;;15.38;12.25;;;;;;;;;;5027038;28;81034;-60
2021/11/27 00:13:15;;;;;;;13.05;9.52;;;;;;;;;;5026744;28;83709;-60
2021/11/27 00:15:42;;;;;;;10.73;8.15;;;;;;;;;;5027081;28;83584;-60
2021/11/27 00:18:11;;;;;;;12.25;8.90;;;;;;;;;;5026886;28;82827;-60
2021/11/27 00:20:46;;;;;;;10.20;8.95;;;;;;;;;;5027240;28;81838;-60
2021/11/27 00:23:13;;;;;;;12.27;10.05;;;;;;;;;;5019769;28;83627;-60
2021/11/27 00:25:42;;;;;;;9.70;8.68;;;;;;;;;;5025145;28;85509;-59
2021/11/27 00:28:09;;;;;;;9.77;7.25;;;;;;;;;;5026828;28;84183;-59
2021/11/27 00:30:38;;;;;;;11.60;7.00;;;;;;;;;;5026499;28;81865;-59
2021/11/27 00:33:06;;;;;;;16.55;12.45;;;;;;;;;;5023538;28;85299;-59
2021/11/27 00:35:33;;;;;;;21.55;18.13;;;;;;;;;;5026388;28;82280;-59
2021/11/27 00:38:01;;;;;;;24.50;18.92;;;;;;;;;;5025502;28;83844;-59
2021/11/27 00:40:28;;;;;;;19.80;17.70;;;;;;;;;;5026441;28;82453;-59
2021/11/27 00:42:56;;;;;;;13.27;10.38;;;;;;;;;;5024600;28;86339;-59
2021/11/27 00:45:25;;;;;;;13.02;10.98;;;;;;;;;;5024591;28;86157;-59
2021/11/27 00:47:54;;;;;;;14.48;11.57;;;;;;;;;;5024820;28;84884;-59
2021/11/27 00:50:26;;;;;;;15.70;13.00;;;;;;;;;;5024555;28;82313;-59
2021/11/27 00:52:53;;;;;;;15.50;12.88;;;;;;;;;;5026168;28;82299;-59
2021/11/27 00:55:21;;;;;;;15.57;13.57;;;;;;;;;;5031019;28;85710;-59
2021/11/27 00:57:48;;;;;;;17.48;13.98;;;;;;;;;;5026757;27;82857;-59
2021/11/27 01:00:23;;;;;;;12.32;10.68;;;;;;;;;;5025880;28;83629;-59
2021/11/27 01:02:52;;;;;;;12.48;10.38;;;;;;;;;;5024988;28;84836;-59
2021/11/27 01:05:23;;;;;;;11.82;10.60;;;;;;;;;;5023623;28;85803;-59
2021/11/27 01:07:50;;;;;;;13.27;10.82;;;;;;;;;;5025667;28;83993;-60
2021/11/27 01:10:21;;;;;;;13.77;11.75;;;;;;;;;;5024215;28;82532;-59
2021/11/27 01:12:49;;;;;;;18.23;12.85;;;;;;;;;;5025904;28;83766;-59
2021/11/27 01:15:20;;;;;;;11.63;9.82;;;;;;;;;;5026091;28;83326;-59
2021/11/27 01:17:47;;;;;;;10.32;8.60;;;;;;;;;;5026724;28;84029;-60
2021/11/27 01:20:17;;;;;;;8.27;7.07;;;;;;;;;;5025443;28;81966;-60
2021/11/27 01:22:44;;;;;;;7.50;6.80;;;;;;;;;;5026252;28;82572;-60
2021/11/27 01:25:15;;;;;;;13.23;9.45;;;;;;;;;;5026916;28;83752;-59
2021/11/27 01:27:42;;;;;;;10.63;9.07;;;;;;;;;;5014681;28;82217;-59
2021/11/27 01:30:12;;;;;;;18.38;8.75;;;;;;;;;;5005127;28;81822;-60
2021/11/27 01:32:40;;;;;;;7.75;6.88;;;;;;;;;;5009062;28;82671;-60
2021/11/27 01:35:09;;;;;;;9.85;6.63;;;;;;;;;;5045015;28;85787;-59
2021/11/27 01:37:38;;;;;;;6.63;5.15;;;;;;;;;;5044415;28;82058;-59
2021/11/27 01:40:10;;;;;;;20.65;6.60;;;;;;;;;;5044968;28;81799;-60
2021/11/27 01:42:38;;;;;;;5.18;4.30;;;;;;;;;;5045902;27;81876;-60
2021/11/27 01:45:07;;;;;;;7.13;5.18;;;;;;;;;;5044075;27;84458;-59
2021/11/27 01:47:34;;;;;;;7.55;5.50;;;;;;;;;;5044987;28;83320;-59
2021/11/27 01:50:01;;;;;;;6.00;5.40;;;;;;;;;;5045055;28;81989;-60
2021/11/27 01:52:28;;;;;;;9.27;6.18;;;;;;;;;;5046386;27;82510;-60
2021/11/27 01:54:56;;;;;;;8.23;6.55;;;;;;;;;;5044167;28;84789;-59
2021/11/27 01:57:23;;;;;;;8.07;6.90;;;;;;;;;;5044349;28;82900;-59
2021/11/27 01:59:50;;;;;;;12.88;9.07;;;;;;;;;;5044567;27;82866;-59
2021/11/27 02:02:17;;;;;;;13.20;10.35;;;;;;;;;;5045048;28;84789;-60
2021/11/27 02:04:45;;;;;;;12.13;10.65;;;;;;;;;;5034658;28;86410;-60
2021/11/27 02:07:14;;;;;;;10.23;9.13;;;;;;;;;;5044843;28;82816;-59
2021/11/27 02:09:42;;;;;;;12.43;10.18;;;;;;;;;;5044053;28;82550;-59
2021/11/27 02:12:11;;;;;;;11.18;8.68;;;;;;;;;;5043277;28;85328;-59
2021/11/27 02:14:40;;;;;;;11.02;9.10;;;;;;;;;;5006393;28;85226;-58
2021/11/27 02:17:18;;;;;;;9.48;8.57;;;;;;;;;;4992431;28;81866;-59
2021/11/27 02:19:49;;;;;;;16.05;12.40;;;;;;;;;;5022412;28;82172;-58
2021/11/27 02:22:16;;;;;;;8.02;7.22;;;;;;;;;;5020615;28;84901;-58
2021/11/27 02:24:46;;;;;;;9.85;7.47;;;;;;;;;;5022775;28;86368;-59
2021/11/27 02:27:14;;;;;;;7.45;6.45;;;;;;;;;;5022113;28;82868;-58
2021/11/27 02:29:43;;;;;;;11.05;9.05;;;;;;;;;;5022741;28;81918;-61
2021/11/27 02:32:10;;;;;;;11.65;9.13;;;;;;;;;;5021560;28;82622;-58
2021/11/27 02:34:37;;;;;;;5.78;4.50;;;;;;;;;;5021885;28;85286;-58
2021/11/27 02:37:08;;;;;;;4.60;3.67;;;;;;;;;;5005282;28;83387;-57
2021/11/27 02:39:41;;;;;;;3.85;3.13;;;;;;;;;;5022148;28;81154;-58
2021/11/27 02:42:09;;;;;;;2.88;2.67;;;;;;;;;;5023537;28;81912;-58
2021/11/27 02:44:38;;;;;;;3.53;3.20;;;;;;;;;;5023189;28;85227;-58
2021/11/27 02:47:07;;;;;;;4.38;2.63;;;;;;;;;;5024578;28;83067;-58
2021/11/27 02:49:35;;;;;;;5.65;3.20;;;;;;;;;;5024864;28;82120;-58
2021/11/27 02:52:03;;;;;;;7.80;6.13;;;;;;;;;;5025373;28;82229;-59
2021/11/27 02:54:31;;;;;;;11.57;8.85;;;;;;;;;;5023505;28;83601;-58
2021/11/27 02:56:58;;;;;;;10.07;8.07;;;;;;;;;;5025376;28;81710;-58
2021/11/27 02:59:28;;;;;;;8.80;7.57;;;;;;;;;;5027137;28;81892;-59
2021/11/27 03:01:58;;;;;;;8.02;7.03;;;;;;;;;;5026747;28;84776;-58
2021/11/27 03:04:30;;;;;;;10.23;8.07;;;;;;;;;;5027292;28;83422;-58
2021/11/27 03:06:58;;;;;;;13.45;9.93;;;;;;;;;;5043815;28;83097;-57
2021/11/27 03:09:25;;;;;;;15.95;10.20;;;;;;;;;;5028972;28;81833;-58
2021/11/27 03:11:54;;;;;;;16.88;11.25;;;;;;;;;;5027013;28;84635;-58
2021/11/27 03:14:24;;;;;;;11.85;9.35;;;;;;;;;;5025902;28;86489;-58
2021/11/27 03:16:52;;;;;;;11.23;9.35;;;;;;;;;;5031846;28;81681;-58
2021/11/27 03:19:30;;;;;;;9.63;8.60;;;;;;;;;;5046838;27;81779;-58
2021/11/27 03:21:57;;;;;;;8.50;7.38;;;;;;;;;;5044240;28;85113;-57
2021/11/27 03:24:26;;;;;;;13.07;8.50;;;;;;;;;;5044921;27;82132;-58
2021/11/27 03:26:53;;;;;;;18.75;14.27;;;;;;;;;;5005772;28;81814;-58
2021/11/27 03:29:21;;;;;;;35.78;25.85;;;;;;;;;;5005732;28;82410;-58
2021/11/27 03:31:48;;;;;;;40.75;28.50;;;;;;;;;;5003317;28;85023;-57
2021/11/27 03:34:27;;;;;;;43.03;32.47;;;;;;;;;;5020789;28;84081;-57
2021/11/27 03:36:55;;;;;;;37.40;28.55;;;;;;;;;;5025022;28;82669;-57
2021/11/27 03:39:22;;;;;;;37.92;28.92;;;;;;;;;;5025933;28;82343;-57
2021/11/27 03:41:49;;;;;;;31.42;25.20;;;;;;;;;;5026122;28;84938;-57
2021/11/27 03:44:17;;;;;;;31.27;24.73;;;;;;;;;;5025626;28;85804;-59
2021/11/27 03:46:45;;;;;;;26.15;20.05;;;;;;;;;;5027065;28;82837;-58
2021/11/27 03:49:12;;;;;;;23.45;19.20;;;;;;;;;;5026742;28;83040;-57
2021/11/27 03:51:41;;;;;;;20.88;18.48;;;;;;;;;;5011794;28;83996;-59
2021/11/27 03:54:09;;;;;;;23.73;15.60;;;;;;;;;;5025229;28;84784;-58
2021/11/27 03:56:36;;;;;;;16.05;13.77;;;;;;;;;;5025942;28;85704;-58
2021/11/27 03:59:05;;;;;;;15.88;12.35;;;;;;;;;;5025519;28;82447;-58
2021/11/27 04:01:33;;;;;;;14.90;12.15;;;;;;;;;;5025369;28;85910;-58
2021/11/27 04:04:03;;;;;;;15.27;12.07;;;;;;;;;;5024990;28;85902;-58
2021/11/27 04:06:32;;;;;;;15.48;13.80;;;;;;;;;;5024595;28;85648;-58
2021/11/27 04:09:00;;;;;;;13.93;11.50;;;;;;;;;;5025191;28;82326;-57
2021/11/27 04:11:32;;;;;;;13.90;9.73;;;;;;;;;;5025366;28;84488;-58
2021/11/27 04:14:02;;;;;;;10.38;9.30;;;;;;;;;;5026498;28;84734;-58
2021/11/27 04:16:32;;;;;;;11.15;9.65;;;;;;;;;;5025814;28;82929;-59
2021/11/27 04:18:59;;;;;;;13.02;8.85;;;;;;;;;;5026817;28;82112;-58
2021/11/27 04:21:26;;;;;;;7.03;3.80;;;;;;;;;;5027034;28;82476;-58
2021/11/27 04:23:53;;;;;;;5.88;3.47;;;;;;;;;;5027743;28;81708;-57
2021/11/27 04:26:21;;;;;;;8.60;6.07;;;;;;;;;;5025413;28;83196;-58
2021/11/27 04:28:49;;;;;;;12.85;6.55;;;;;;;;;;5026497;28;81593;-57
2021/11/27 04:31:20;;;;;;;8.07;6.88;;;;;;;;;;5026967;28;82415;-58
2021/11/27 04:33:49;;;;;;;10.63;8.10;;;;;;;;;;5027329;28;83498;-58
2021/11/27 04:36:17;;;;;;;11.27;9.00;;;;;;;;;;5025601;28;82918;-58
2021/11/27 04:38:45;;;;;;;7.93;6.85;;;;;;;;;;5025216;28;82345;-59
2021/11/27 04:41:13;;;;;;;15.77;10.68;;;;;;;;;;5025973;28;85573;-58
2021/11/27 04:43:41;;;;;;;12.32;10.32;;;;;;;;;;5024798;28;84842;-58
2021/11/27 04:46:08;;;;;;;11.35;9.73;;;;;;;;;;5026170;28;84186;-58
2021/11/27 04:48:35;;;;;;;12.38;10.05;;;;;;;;;;5026689;28;81863;-58
2021/11/27 04:51:03;;;;;;;9.05;5.13;;;;;;;;;;5024488;28;86001;-58
2021/11/27 04:53:33;;;;;;;6.55;2.97;;;;;;;;;;5025281;28;85992;-58
2021/11/27 04:56:00;;;;;;;6.97;2.90;;;;;;;;;;5025746;28;82531;-58
2021/11/27 04:58:29;;;;;;;4.45;2.72;;;;;;;;;;5025198;28;81941;-58
2021/11/27 05:00:59;;;;;;;5.07;3.65;;;;;;;;;;5025548;28;85336;-58
2021/11/27 05:03:37;;;;;;;8.20;4.43;;;;;;;;;;5024959;28;84793;-58
2021/11/27 05:06:04;;;;;;;7.32;3.05;;;;;;;;;;5024987;28;82273;-58
2021/11/27 05:08:31;;;;;;;6.85;3.78;;;;;;;;;;5026115;28;81622;-58
2021/11/27 05:10:59;;;;;;;4.88;4.13;;;;;;;;;;5025251;28;85052;-58
2021/11/27 05:13:27;;;;;;;7.82;5.68;;;;;;;;;;5025424;28;82410;-57
2021/11/27 05:15:54;;;;;;;12.55;7.78;;;;;;;;;;5025886;28;82812;-58
2021/11/27 05:18:21;;;;;;;14.93;6.57;;;;;;;;;;5025490;28;81944;-58
2021/11/27 05:21:00;;;;;;;9.82;6.10;;;;;;;;;;5024716;28;82479;-54
2021/11/27 05:23:28;;;;;;;6.15;5.00;;;;;;;;;;5025584;28;85410;-53
2021/11/27 05:25:59;;;;;;;9.05;5.25;;;;;;;;;;5024229;28;82712;-55
2021/11/27 05:28:49;;;;;;;8.30;4.18;;;;;;;;;;5026429;28;81555;-57
2021/11/27 05:31:34;;;;;;;6.18;4.00;;;;;;;;;;5026602;28;82167;-58
2021/11/27 05:36:31;;;;;;;6.10;4.05;;;;;;;;;;5005477;28;81789;-58
2021/11/27 05:38:59;;;;;;;8.88;6.78;;;;;;;;;;5005049;28;82360;-58
2021/11/27 05:41:26;;;;;;;9.45;5.47;;;;;;;;;;5011551;28;83700;-58
2021/11/27 05:43:57;;;;;;;6.75;5.50;;;;;;;;;;5044953;28;84459;-58
2021/11/27 05:46:24;;;;;;;11.80;5.93;;;;;;;;;;5044801;27;82196;-58
2021/11/27 05:48:51;;;;;;;6.78;5.05;;;;;;;;;;5044516;28;81962;-58
2021/11/27 05:51:30;;;;;;;22.17;14.32;;;;;;;;;;5046397;27;82325;-58
2021/11/27 05:53:57;;;;;;;22.73;14.95;;;;;;;;;;5044433;27;84231;-58
2021/11/27 05:56:24;;;;;;;17.77;14.73;;;;;;;;;;5045231;27;84099;-65
2021/11/27 05:58:51;;;;;;;23.15;16.33;;;;;;;;;;5044970;27;82643;-58
2021/11/27 06:01:18;;;;;;;19.58;15.10;;;;;;;;;;5045050;27;83585;-57
2021/11/27 06:03:45;;;;;;;11.18;8.75;;;;;;;;;;5044498;28;84420;-57
2021/11/27 06:06:12;;;;;;;9.90;7.03;;;;;;;;;;5038350;27;83079;-58
2021/11/27 06:08:38;;;;;;;17.50;12.35;;;;;;;;;;5045627;27;81854;-57
2021/11/27 06:11:05;;;;;;;21.15;14.55;;;;;;;;;;5044947;27;83800;-58
2021/11/27 06:13:34;;;;;;;21.27;17.10;;;;;;;;;;5044585;28;84543;-57
2021/11/27 06:16:06;;;;;;;20.52;16.48;;;;;;;;;;5044506;27;82608;-58
2021/11/27 06:18:35;;;;;;;22.30;16.95;;;;;;;;;;5044794;27;82489;-58
2021/11/27 06:21:02;;;;;;;22.50;16.70;;;;;;;;;;5044714;27;83691;-58
2021/11/27 06:23:30;;;;;;;22.52;18.73;;;;;;;;;;5045100;27;83451;-58
2021/11/27 06:25:58;;;;;;;21.10;16.20;;;;;;;;;;5043688;27;84125;-57
2021/11/27 06:28:25;;;;;;;18.58;15.63;;;;;;;;;;5044722;27;82405;-58
2021/11/27 06:30:52;;;;;;;15.48;12.30;;;;;;;;;;5039419;28;83591;-58
2021/11/27 06:33:19;;;;;;;14.90;12.32;;;;;;;;;;5023980;28;84213;-57
2021/11/27 06:35:46;;;;;;;17.13;10.35;;;;;;;;;;5023290;28;83094;-60
2021/11/27 06:38:13;;;;;;;12.57;10.52;;;;;;;;;;5023048;28;82500;-60
2021/11/27 06:40:41;;;;;;;12.70;11.00;;;;;;;;;;5023535;28;82459;-60
2021/11/27 06:43:17;;;;;;;12.20;9.10;;;;;;;;;;5023808;28;85652;-58
2021/11/27 06:46:00;;;;;;;13.27;8.45;;;;;;;;;;5022784;28;85480;-59
2021/11/27 06:48:28;;;;;;;16.63;8.60;;;;;;;;;;5022180;28;81013;-60
2021/11/27 06:50:55;;;;;;;9.02;7.60;;;;;;;;;;5024380;28;83753;-58
2021/11/27 06:53:22;;;;;;;9.68;7.97;;;;;;;;;;5011846;28;83388;-60
2021/11/27 06:55:49;;;;;;;11.57;8.23;;;;;;;;;;5017940;28;82796;-60
2021/11/27 06:58:19;;;;;;;9.98;7.03;;;;;;;;;;5015518;28;81988;-58
2021/11/27 07:01:03;;;;;;;8.43;6.30;;;;;;;;;;5015853;28;84582;-61
2021/11/27 07:04:06;;;;;;;11.18;6.72;;;;;;;;;;5019583;28;83628;-56
2021/11/27 07:06:52;;;;;;;13.95;7.55;;;;;;;;;;5007452;28;82181;-60
2021/11/27 07:09:35;;;;;;;13.50;7.30;;;;;;;;;;5008591;28;82093;-60
2021/11/27 07:12:11;;;;;;;11.95;6.75;;;;;;;;;;5021704;28;85625;-59
2021/11/27 07:14:44;;;;;;;9.25;7.40;;;;;;;;;;5023697;28;84961;-60
2021/11/27 07:17:11;;;;;;;14.68;7.82;;;;;;;;;;5019586;28;81964;-59
2021/11/27 07:19:38;;;;;;;12.80;7.38;;;;;;;;;;5019578;28;81912;-59
2021/11/27 07:22:05;;;;;;;19.83;9.80;;;;;;;;;;5017131;27;83432;-59
2021/11/27 07:24:32;;;;;;;11.02;7.60;;;;;;;;;;5018167;28;84302;-59
2021/11/27 07:27:04;;;;;;;11.35;6.55;;;;;;;;;;5015621;28;81962;-59
2021/11/27 07:29:32;;;;;;;8.05;5.90;;;;;;;;;;5006568;28;82419;-60
2021/11/27 07:31:59;;;;;;;8.48;5.45;;;;;;;;;;5005679;28;83622;-60
2021/11/27 07:34:26;;;;;;;9.55;5.28;;;;;;;;;;5015674;28;82726;-59
2021/11/27 07:36:53;;;;;;;8.55;5.95;;;;;;;;;;5024562;28;82110;-59
2021/11/27 07:39:20;;;;;;;12.18;6.97;;;;;;;;;;5014706;28;82590;-51
2021/11/27 07:41:47;;;;;;;10.10;7.22;;;;;;;;;;5013312;28;83941;-54
2021/11/27 07:44:20;;;;;;;8.32;7.50;;;;;;;;;;5023338;28;83260;-58
2021/11/27 07:47:10;;;;;;;13.88;7.55;;;;;;;;;;5007269;28;83162;-55
2021/11/27 07:49:56;;;;;;;17.42;10.05;;;;;;;;;;5022657;28;82504;-58
2021/11/27 07:52:42;;;;;;;14.68;10.95;;;;;;;;;;5021417;28;82415;-59
2021/11/27 07:55:10;;;;;;;12.40;10.13;;;;;;;;;;5021440;28;84696;-52
2021/11/27 07:57:36;;;;;;;12.98;9.77;;;;;;;;;;5023123;28;82725;-56
2021/11/27 08:00:05;;;;;;;8.98;7.07;;;;;;;;;;5018414;28;83430;-57
2021/11/27 08:02:38;;;;;;;16.52;8.32;;;;;;;;;;5019636;28;83002;-60
2021/11/27 08:05:06;;;;;;;10.70;7.78;;;;;;;;;;5021031;28;83503;-60
2021/11/27 08:07:36;;;;;;;11.15;5.68;;;;;;;;;;5021679;28;81878;-55
2021/11/27 08:10:08;;;;;;;10.93;5.40;;;;;;;;;;5019790;28;83201;-59
2021/11/27 08:12:35;;;;;;;10.65;7.20;;;;;;;;;;5017221;28;84519;-54
2021/11/27 08:15:03;;;;;;;9.80;6.93;;;;;;;;;;5018313;28;83963;-57
2021/11/27 08:17:31;;;;;;;17.38;8.20;;;;;;;;;;5019234;28;82167;-58
2021/11/27 08:19:58;;;;;;;10.75;6.68;;;;;;;;;;5025490;28;82047;-57
2021/11/27 08:22:25;;;;;;;12.27;7.45;;;;;;;;;;5011629;28;82821;-59
2021/11/27 08:24:52;;;;;;;11.10;6.70;;;;;;;;;;5010727;28;82419;-57
2021/11/27 08:27:20;;;;;;;20.13;12.80;;;;;;;;;;5014195;28;83449;-57
2021/11/27 08:29:47;;;;;;;43.67;12.55;;;;;;;;;;5025272;28;82653;-61
2021/11/27 08:32:14;;;;;;;19.15;10.98;;;;;;;;;;5014402;28;82709;-57
2021/11/27 08:34:41;;;;;;;13.80;7.72;;;;;;;;;;5012072;28;83382;-57
2021/11/27 08:37:08;;;;;;;10.95;7.75;;;;;;;;;;5019462;28;84169;-57
2021/11/27 08:39:35;;;;;;;13.07;6.40;;;;;;;;;;5024071;27;81985;-57
2021/11/27 08:42:02;;;;;;;9.43;6.35;;;;;;;;;;5023807;27;82470;-56
2021/11/27 08:44:29;;;;;;;12.30;6.38;;;;;;;;;;5012092;28;82405;-59
2021/11/27 08:46:56;;;;;;;13.52;8.77;;;;;;;;;;5027882;27;81902;-59
2021/11/27 08:49:24;;;;;;;28.95;21.55;;;;;;;;;;5015859;28;82629;-60
2021/11/27 08:51:51;;;;;;;16.30;6.65;;;;;;;;;;5018470;28;83259;-60
2021/11/27 08:54:18;;;;;;;16.90;5.95;;;;;;;;;;5006659;28;82291;-60
2021/11/27 08:56:45;;;;;;;8.52;4.85;;;;;;;;;;5007163;28;81885;-60
2021/11/27 08:59:12;;;;;;;6.00;4.28;;;;;;;;;;5008399;28;81987;-60
2021/11/27 09:01:41;;;;;;;8.60;4.68;;;;;;;;;;5014340;28;84342;-60
2021/11/27 09:04:08;;;;;;;9.45;4.07;;;;;;;;;;5016482;27;84539;-61
2021/11/27 09:06:35;;;;;;;10.10;5.55;;;;;;;;;;5021478;28;81901;-61
2021/11/27 09:09:04;;;;;;;12.20;6.07;;;;;;;;;;5013957;28;82380;-61
2021/11/27 09:11:31;;;;;;;9.10;4.50;;;;;;;;;;5017910;27;83616;-58
2021/11/27 09:13:58;;;;;;;13.20;4.82;;;;;;;;;;5005098;28;83395;-60
2021/11/27 09:16:25;;;;;;;11.02;5.93;;;;;;;;;;5009997;28;82075;-58
2021/11/27 09:19:05;;;;;;;18.27;5.78;;;;;;;;;;5012469;28;81610;-59
2021/11/27 09:21:33;;;;;;;8.43;5.10;;;;;;;;;;5013654;28;83505;-60
2021/11/27 09:24:01;;;;;;;11.88;5.82;;;;;;;;;;5016686;28;83566;-62
2021/11/27 09:26:28;;;;;;;14.48;6.72;;;;;;;;;;5024540;28;83281;-61
2021/11/27 09:28:55;;;;;;;7.97;5.97;;;;;;;;;;5012383;28;82396;-59
2021/11/27 09:31:22;;;;;;;19.52;6.15;;;;;;;;;;5011285;28;82837;-61
2021/11/27 09:33:49;;;;;;;9.70;5.57;;;;;;;;;;5022861;28;83491;-63
2021/11/27 09:36:20;;;;;;;15.65;5.88;;;;;;;;;;5008574;28;83210;-62
2021/11/27 09:38:48;;;;;;;11.73;4.60;;;;;;;;;;5012454;28;82489;-61
2021/11/27 09:41:26;;;;;;;7.47;4.80;;;;;;;;;;5005404;28;83742;-61
2021/11/27 09:44:04;;;;;;;10.57;5.53;;;;;;;;;;5007788;28;83291;-62
2021/11/27 09:46:33;;;;;;;12.40;7.07;;;;;;;;;;5028002;28;81823;-60
2021/11/27 09:49:03;;;;;;;14.30;8.20;;;;;;;;;;5022290;28;81976;-60
2021/11/27 09:51:32;;;;;;;17.13;8.55;;;;;;;;;;5009875;28;84381;-61
2021/11/27 09:54:01;;;;;;;13.57;8.10;;;;;;;;;;5017773;28;84192;-60
2021/11/27 09:56:29;;;;;;;14.10;8.70;;;;;;;;;;5015502;28;82132;-61
2021/11/27 09:58:56;;;;;;;12.63;8.15;;;;;;;;;;5011230;28;81826;-59
2021/11/27 10:01:32;;;;;;;12.93;7.78;;;;;;;;;;5006468;28;83906;-69
2021/11/27 10:04:05;;;;;;;13.48;7.68;;;;;;;;;;5005903;28;83421;-61
2021/11/27 10:06:38;;;;;;;13.23;6.57;;;;;;;;;;5003403;28;84106;-59
2021/11/27 10:09:08;;;;;;;10.20;7.25;;;;;;;;;;5006982;28;82695;-59
2021/11/27 10:11:36;;;;;;;10.90;6.10;;;;;;;;;;5007353;28;84049;-60
2021/11/27 10:14:05;;;;;;;9.98;6.22;;;;;;;;;;5003256;28;83537;-59
2021/11/27 10:16:33;;;;;;;10.75;7.13;;;;;;;;;;5005207;28;83108;-59
2021/11/27 10:19:06;;;;;;;13.23;8.07;;;;;;;;;;5017354;28;81980;-61
2021/11/27 10:21:35;;;;;;;24.60;7.20;;;;;;;;;;5023280;27;82611;-64
2021/11/27 10:24:22;;;;;;;8.82;6.88;;;;;;;;;;5016455;28;82389;-62
2021/11/27 10:26:50;;;;;;;13.45;7.15;;;;;;;;;;5014378;28;82379;-60
2021/11/27 10:29:28;;;;;;;14.52;7.43;;;;;;;;;;5005820;28;82122;-60
2021/11/27 10:32:15;;;;;;;11.40;7.07;;;;;;;;;;5007253;28;83740;-61
2021/11/27 10:35:01;;;;;;;10.50;7.97;;;;;;;;;;5010524;28;83382;-59
2021/11/27 10:37:29;;;;;;;12.80;9.70;;;;;;;;;;5007680;28;82912;-60
2021/11/27 10:40:15;;;;;;;18.98;9.90;;;;;;;;;;5006800;28;82235;-61
2021/11/27 10:42:51;;;;;;;11.43;8.63;;;;;;;;;;5010393;28;84660;-60
2021/11/27 10:45:24;;;;;;;11.95;8.55;;;;;;;;;;5006088;28;84117;-62
2021/11/27 10:47:53;;;;;;;13.77;9.00;;;;;;;;;;5007811;28;81858;-62
2021/11/27 10:50:24;;;;;;;12.63;9.13;;;;;;;;;;5018702;28;82281;-60
2021/11/27 10:52:53;;;;;;;12.75;9.20;;;;;;;;;;5016954;27;83908;-60
2021/11/27 10:55:26;;;;;;;10.10;7.90;;;;;;;;;;5006699;28;82464;-58
2021/11/27 10:58:00;;;;;;;13.57;8.00;;;;;;;;;;5018741;28;81892;-60
2021/11/27 11:00:47;;;;;;;9.27;6.25;;;;;;;;;;5016068;28;81251;-60
2021/11/27 11:03:32;;;;;;;12.85;9.25;;;;;;;;;;5012570;28;85527;-62
2021/11/27 11:06:00;;;;;;;;;;;;;;;;;;5012129;28;83758;-63
2021/11/27 11:08:38;;;;;;;9.10;7.90;;;;;;;;;;5018278;28;82870;-61
2021/11/27 11:11:20;;;;;;;12.93;7.65;;;;;;;;;;5014933;28;82056;-61
2021/11/27 11:13:52;;;;;;;11.57;8.23;;;;;;;;;;5011912;28;83612;-60
2021/11/27 11:16:40;;;;;;;13.43;8.32;;;;;;;;;;5010869;28;83549;-61
2021/11/27 11:19:21;;;;;;;14.45;10.07;;;;;;;;;;5019084;27;81892;-66
2021/11/27 11:22:10;;;;;;;17.70;9.20;;;;;;;;;;5022128;28;82633;-62
2021/11/27 11:24:39;;;;;;;14.15;10.23;;;;;;;;;;5014904;28;82674;-62
2021/11/27 11:27:09;;;;;;;15.95;12.30;;;;;;;;;;5010229;28;84415;-65
2021/11/27 11:29:47;;;;;;;14.50;9.18;;;;;;;;;;5016918;28;83830;-62
2021/11/27 11:32:21;;;;;;;17.15;10.10;;;;;;;;;;5022404;28;81861;-62
2021/11/27 11:34:50;;;;;;;10.35;8.23;;;;;;;;;;5019487;27;84525;-61
2021/11/27 11:37:17;;;;;;;17.08;11.48;;;;;;;;;;5024142;28;84513;-63
2021/11/27 11:39:45;;;;;;;15.27;10.38;;;;;;;;;;5016210;28;82352;-62
2021/11/27 11:42:12;;;;;;;15.23;11.20;;;;;;;;;;5012349;28;82728;-60
2021/11/27 11:44:42;;;;;;;14.95;10.88;;;;;;;;;;5010478;28;83803;-62
2021/11/27 11:47:09;;;;;;;17.60;10.95;;;;;;;;;;5014397;28;83317;-60
2021/11/27 11:49:37;;;;;;;14.43;11.65;;;;;;;;;;5018689;28;83995;-62
2021/11/27 11:52:11;;;;;;;15.73;10.50;;;;;;;;;;5016563;28;82646;-61
2021/11/27 11:54:38;;;;;;;17.00;10.48;;;;;;;;;;5023784;28;83646;-61
2021/11/27 11:57:10;;;;;;;24.67;11.50;;;;;;;;;;5014213;28;84791;-61
2021/11/27 11:59:39;;;;;;;13.02;10.65;;;;;;;;;;5023235;28;84144;-61
2021/11/27 12:02:13;;;;;;;15.38;11.48;;;;;;;;;;5022986;28;82528;-60
2021/11/27 12:05:11;;;;;;;17.63;11.55;;;;;;;;;;5024807;28;83756;-60
2021/11/27 12:07:53;;;;;;;13.57;10.57;;;;;;;;;;5012839;28;84345;-60
2021/11/27 12:10:43;;;;;;;11.40;9.80;;;;;;;;;;5019148;28;84094;-64
2021/11/27 12:13:10;;;;;;;14.02;10.60;;;;;;;;;;5019485;28;82892;-61
2021/11/27 12:15:39;;;;;;;15.50;11.23;;;;;;;;;;5025898;28;82519;-61
2021/11/27 12:18:18;;;;;;;17.67;10.57;;;;;;;;;;5015353;28;83290;-63
2021/11/27 12:20:55;;;;;;;15.63;10.85;;;;;;;;;;5009314;28;84151;-61
2021/11/27 12:23:25;;;;;;;14.77;11.50;;;;;;;;;;5012696;28;82774;-61
2021/11/27 12:26:22;;;;;;;11.65;10.45;;;;;;;;;;5006230;28;84903;-67
2021/11/27 12:28:48;;;;;;;20.60;13.02;;;;;;;;;;5000772;28;84322;-62
2021/11/27 12:31:17;;;;;;;15.65;9.68;;;;;;;;;;5006283;28;83917;-62
2021/11/27 12:33:59;;;;;;;12.10;7.28;;;;;;;;;;5012193;28;81770;-62
2021/11/27 12:36:30;;;;;;;19.13;8.55;;;;;;;;;;5016244;28;83635;-62
2021/11/27 12:39:21;;;;;;;19.73;9.25;;;;;;;;;;5011961;28;83925;-62
2021/11/27 12:41:52;;;;;;;19.42;12.73;;;;;;;;;;5016318;28;81925;-60
2021/11/27 12:44:52;;;;;;;12.18;9.38;;;;;;;;;;5015643;28;82515;-61
2021/11/27 12:47:23;;;;;;;16.02;9.13;;;;;;;;;;5006563;28;84041;-63
2021/11/27 12:49:55;;;;;;;15.85;9.77;;;;;;;;;;5008434;28;83609;-60
2021/11/27 12:52:28;;;;;;;9.07;7.32;;;;;;;;;;5015640;28;82711;-61
2021/11/27 12:55:18;;;;;;;15.93;9.18;;;;;;;;;;5019206;28;82041;-60
2021/11/27 12:57:47;;;;;;;10.88;6.97;;;;;;;;;;5009981;28;83683;-61
2021/11/27 13:00:19;;;;;;;11.98;8.23;;;;;;;;;;5011998;28;83628;-61
2021/11/27 13:02:53;;;;;;;12.80;7.85;;;;;;;;;;5017550;28;81899;-63
2021/11/27 13:05:21;;;;;;;14.45;8.45;;;;;;;;;;5014295;28;81863;-60
2021/11/27 13:07:48;;;;;;;11.77;7.45;;;;;;;;;;5009277;28;83698;-61
2021/11/27 13:10:15;;;;;;;13.68;8.05;;;;;;;;;;5014377;28;83858;-61
2021/11/27 13:13:00;;;;;;;13.98;9.50;;;;;;;;;;5017418;28;82243;-58
2021/11/27 13:15:27;;;;;;;13.65;8.23;;;;;;;;;;5017353;28;82154;-60
2021/11/27 13:18:14;;;;;;;30.30;9.23;;;;;;;;;;5015830;28;84509;-59
2021/11/27 13:20:54;;;;;;;13.52;9.75;;;;;;;;;;5014709;28;84733;-60
2021/11/27 13:23:24;;;;;;;18.92;10.93;;;;;;;;;;5018161;28;83162;-66
2021/11/27 13:25:52;;;;;;;20.55;9.63;;;;;;;;;;5023815;28;82581;-61
2021/11/27 13:28:23;;;;;;;19.02;10.65;;;;;;;;;;5008117;28;83773;-61
2021/11/27 13:30:52;;;;;;;18.25;10.73;;;;;;;;;;5017821;28;85021;-61
2021/11/27 13:33:21;;;;;;;24.25;12.68;;;;;;;;;;5019338;28;84208;-63
2021/11/27 13:35:49;;;;;;;13.23;8.40;;;;;;;;;;5015262;28;82553;-62
2021/11/27 13:38:30;;;;;;;19.63;10.25;;;;;;;;;;5018050;28;83684;-62
2021/11/27 13:40:58;;;;;;;18.33;12.30;;;;;;;;;;5020216;27;84431;-60
2021/11/27 13:43:24;;;;;;;15.05;10.95;;;;;;;;;;5022089;28;83122;-60
2021/11/27 13:45:51;;;;;;;22.88;10.30;;;;;;;;;;5017874;28;82406;-61
2021/11/27 13:48:18;;;;;;;15.55;10.45;;;;;;;;;;5020025;28;83808;-60
2021/11/27 13:50:48;;;;;;;19.42;10.85;;;;;;;;;;5024832;28;84452;-61
2021/11/27 13:53:17;;;;;;;12.40;9.50;;;;;;;;;;5022416;28;84188;-61
2021/11/27 13:55:54;;;;;;;13.00;8.80;;;;;;;;;;5023958;28;81876;-59
2021/11/27 13:58:26;;;;;;;18.25;8.88;;;;;;;;;;5021130;28;83653;-61
2021/11/27 14:01:01;;;;;;;18.17;9.05;;;;;;;;;;5013691;28;83588;-62
2021/11/27 14:03:33;;;;;;;13.98;9.07;;;;;;;;;;5020290;28;81793;-61
2021/11/27 14:06:12;;;;;;;17.40;8.73;;;;;;;;;;5020940;28;82403;-61
2021/11/27 14:08:52;;;;;;;16.95;9.63;;;;;;;;;;5021421;28;83609;-63
2021/11/27 14:11:31;;;;;;;11.90;8.40;;;;;;;;;;5016233;28;84281;-62
2021/11/27 14:14:04;;;;;;;10.32;7.18;;;;;;;;;;5017581;28;82304;-63
2021/11/27 14:16:39;;;;;;;18.02;8.32;;;;;;;;;;5019488;28;81779;-59
2021/11/27 14:19:11;;;;;;;15.48;7.95;;;;;;;;;;5021920;28;83756;-64
2021/11/27 14:21:38;;;;;;;13.18;9.15;;;;;;;;;;5017589;28;83581;-63
2021/11/27 14:24:10;;;;;;;11.88;7.60;;;;;;;;;;5021824;28;81785;-62
2021/11/27 14:26:47;;;;;;;11.85;9.13;;;;;;;;;;5022189;28;81582;-62
2021/11/27 14:29:18;;;;;;;13.02;8.48;;;;;;;;;;5015022;28;83824;-63
2021/11/27 14:31:45;;;;;;;11.85;7.10;;;;;;;;;;5012487;28;83576;-62
2021/11/27 14:34:18;;;;;;;9.20;6.40;;;;;;;;;;5020171;28;83205;-60
2021/11/27 14:36:53;;;;;;;7.35;4.88;;;;;;;;;;5020203;28;82230;-62
2021/11/27 14:39:24;;;;;;;8.63;5.65;;;;;;;;;;5016649;28;84270;-60
2021/11/27 14:41:59;;;;;;;8.10;5.43;;;;;;;;;;5022123;28;81859;-58
2021/11/27 14:44:27;;;;;;;4.65;2.80;;;;;;;;;;5016585;28;81920;-62
2021/11/27 14:46:56;;;;;;;6.35;4.10;;;;;;;;;;5019087;28;81965;-58
2021/11/27 14:49:57;;;;;;;5.05;2.08;;;;;;;;;;5021377;28;82780;-60
2021/11/27 14:52:26;;;;;;;1.10;1.00;;;;;;;;;;5018916;28;83520;-60